sensor_id;sensor_type;location;lat;lon;timestamp;P1;durP1;ratioP1;P2;durP2;ratioP2
17993;SDS011;9122;48.406;9.984;2022-09-14T00:02:26;5.05;;;3.33;;
17993;SDS011;9122;48.406;9.984;2022-09-14T00:05:11;3.70;;;3.50;;
17993;SDS011;9122;48.406;9.984;2022-09-14T00:07:55;4.53;;;3.33;;
17993;SDS011;9122;48.406;9.984;2022-09-14T00:10:40;4.00;;;3.30;;
17993;SDS011;9122;48.406;9.984;2022-09-14T00:13:25;4.07;;;2.47;;
17993;SDS011;9122;48.406;9.984;2022-09-14T00:16:11;5.10;;;3.13;;
17993;SDS011;9122;48.406;9.984;2022-09-14T00:19:04;3.45;;;3.15;;
17993;SDS011;9122;48.406;9.984;2022-09-14T00:21:57;3.80;;;3.50;;
17993;SDS011;9122;48.406;9.984;2022-09-14T00:24:41;3.00;;;2.80;;
17993;SDS011;9122;48.406;9.984;2022-09-14T00:27:26;3.25;;;3.05;;
17993;SDS011;9122;48.406;9.984;2022-09-14T00:30:11;4.30;;;3.63;;
17993;SDS011;9122;48.406;9.984;2022-09-14T00:32:55;3.75;;;3.55;;
17993;SDS011;9122;48.406;9.984;2022-09-14T00:35:40;4.70;;;3.67;;
17993;SDS011;9122;48.406;9.984;2022-09-14T00:38:24;4.53;;;4.22;;
17993;SDS011;9122;48.406;9.984;2022-09-14T00:41:11;4.10;;;3.80;;
17993;SDS011;9122;48.406;9.984;2022-09-14T00:43:59;3.50;;;3.30;;
17993;SDS011;9122;48.406;9.984;2022-09-14T00:46:45;3.75;;;3.50;;
17993;SDS011;9122;48.406;9.984;2022-09-14T00:49:38;3.53;;;3.33;;
17993;SDS011;9122;48.406;9.984;2022-09-14T00:52:25;5.00;;;3.50;;
17993;SDS011;9122;48.406;9.984;2022-09-14T00:55:14;3.35;;;3.15;;
17993;SDS011;9122;48.406;9.984;2022-09-14T00:58:01;3.40;;;3.15;;
17993;SDS011;9122;48.406;9.984;2022-09-14T01:00:46;4.25;;;3.95;;
17993;SDS011;9122;48.406;9.984;2022-09-14T01:03:30;4.78;;;4.45;;
17993;SDS011;9122;48.406;9.984;2022-09-14T01:18:31;4.18;;;3.83;;
17993;SDS011;9122;48.406;9.984;2022-09-14T01:21:38;4.68;;;3.67;;
17993;SDS011;9122;48.406;9.984;2022-09-14T01:24:29;3.97;;;3.70;;
17993;SDS011;9122;48.406;9.984;2022-09-14T01:30:18;4.53;;;3.72;;
17993;SDS011;9122;48.406;9.984;2022-09-14T01:33:10;3.47;;;3.17;;
17993;SDS011;9122;48.406;9.984;2022-09-14T01:36:01;5.10;;;3.50;;
17993;SDS011;9122;48.406;9.984;2022-09-14T01:38:50;6.25;;;3.47;;
17993;SDS011;9122;48.406;9.984;2022-09-14T01:41:36;4.47;;;3.78;;
17993;SDS011;9122;48.406;9.984;2022-09-14T01:44:26;4.35;;;4.05;;
17993;SDS011;9122;48.406;9.984;2022-09-14T01:50:24;3.78;;;3.53;;
17993;SDS011;9122;48.406;9.984;2022-09-14T01:56:40;3.72;;;3.42;;
17993;SDS011;9122;48.406;9.984;2022-09-14T01:59:30;3.30;;;3.05;;
17993;SDS011;9122;48.406;9.984;2022-09-14T02:05:08;4.15;;;3.72;;
17993;SDS011;9122;48.406;9.984;2022-09-14T02:07:56;4.75;;;4.00;;
17993;SDS011;9122;48.406;9.984;2022-09-14T02:10:41;6.30;;;4.13;;
17993;SDS011;9122;48.406;9.984;2022-09-14T02:13:26;4.43;;;4.13;;
17993;SDS011;9122;48.406;9.984;2022-09-14T02:16:11;4.55;;;4.15;;
17993;SDS011;9122;48.406;9.984;2022-09-14T02:18:56;6.07;;;3.90;;
17993;SDS011;9122;48.406;9.984;2022-09-14T02:21:41;4.15;;;3.78;;
17993;SDS011;9122;48.406;9.984;2022-09-14T02:24:26;4.35;;;4.05;;
17993;SDS011;9122;48.406;9.984;2022-09-14T02:27:11;4.22;;;3.92;;
17993;SDS011;9122;48.406;9.984;2022-09-14T02:29:56;4.47;;;4.07;;
17993;SDS011;9122;48.406;9.984;2022-09-14T02:33:05;4.82;;;4.47;;
17993;SDS011;9122;48.406;9.984;2022-09-14T02:35:52;4.95;;;4.55;;
17993;SDS011;9122;48.406;9.984;2022-09-14T02:38:45;5.43;;;5.03;;
17993;SDS011;9122;48.406;9.984;2022-09-14T02:41:44;6.53;;;5.13;;
17993;SDS011;9122;48.406;9.984;2022-09-14T02:44:54;5.22;;;4.82;;
17993;SDS011;9122;48.406;9.984;2022-09-14T02:51:14;5.38;;;4.97;;
17993;SDS011;9122;48.406;9.984;2022-09-14T02:54:05;4.10;;;3.83;;
17993;SDS011;9122;48.406;9.984;2022-09-14T02:56:54;4.85;;;4.45;;
17993;SDS011;9122;48.406;9.984;2022-09-14T02:59:43;4.65;;;4.25;;
17993;SDS011;9122;48.406;9.984;2022-09-14T03:02:27;4.05;;;3.53;;
17993;SDS011;9122;48.406;9.984;2022-09-14T03:05:11;4.18;;;3.88;;
17993;SDS011;9122;48.406;9.984;2022-09-14T03:07:55;8.10;;;5.20;;
17993;SDS011;9122;48.406;9.984;2022-09-14T03:10:41;4.38;;;4.00;;
17993;SDS011;9122;48.406;9.984;2022-09-14T03:13:26;5.03;;;4.72;;
17993;SDS011;9122;48.406;9.984;2022-09-14T03:16:11;5.72;;;4.85;;
17993;SDS011;9122;48.406;9.984;2022-09-14T03:18:57;4.80;;;4.50;;
17993;SDS011;9122;48.406;9.984;2022-09-14T03:21:42;5.15;;;4.75;;
17993;SDS011;9122;48.406;9.984;2022-09-14T03:24:27;5.25;;;4.75;;
17993;SDS011;9122;48.406;9.984;2022-09-14T03:27:11;5.20;;;4.80;;
17993;SDS011;9122;48.406;9.984;2022-09-14T03:29:55;5.28;;;4.78;;
17993;SDS011;9122;48.406;9.984;2022-09-14T03:32:40;5.68;;;4.95;;
17993;SDS011;9122;48.406;9.984;2022-09-14T03:35:26;5.72;;;5.22;;
17993;SDS011;9122;48.406;9.984;2022-09-14T03:38:13;5.90;;;5.50;;
17993;SDS011;9122;48.406;9.984;2022-09-14T03:40:59;7.60;;;5.53;;
17993;SDS011;9122;48.406;9.984;2022-09-14T03:43:43;6.00;;;5.50;;
17993;SDS011;9122;48.406;9.984;2022-09-14T03:46:29;5.65;;;5.25;;
17993;SDS011;9122;48.406;9.984;2022-09-14T03:49:14;6.88;;;6.28;;
17993;SDS011;9122;48.406;9.984;2022-09-14T03:51:58;6.72;;;6.22;;
17993;SDS011;9122;48.406;9.984;2022-09-14T03:54:43;7.03;;;6.07;;
17993;SDS011;9122;48.406;9.984;2022-09-14T03:57:27;7.20;;;6.53;;
17993;SDS011;9122;48.406;9.984;2022-09-14T04:00:12;9.77;;;6.68;;
17993;SDS011;9122;48.406;9.984;2022-09-14T04:02:58;7.75;;;6.20;;
17993;SDS011;9122;48.406;9.984;2022-09-14T04:05:43;7.32;;;6.63;;
17993;SDS011;9122;48.406;9.984;2022-09-14T04:08:38;6.00;;;5.60;;
17993;SDS011;9122;48.406;9.984;2022-09-14T04:11:24;6.78;;;6.28;;
17993;SDS011;9122;48.406;9.984;2022-09-14T04:14:09;7.15;;;6.22;;
17993;SDS011;9122;48.406;9.984;2022-09-14T04:16:53;7.25;;;6.65;;
17993;SDS011;9122;48.406;9.984;2022-09-14T04:19:38;7.30;;;6.70;;
17993;SDS011;9122;48.406;9.984;2022-09-14T04:22:23;7.63;;;7.03;;
17993;SDS011;9122;48.406;9.984;2022-09-14T04:25:08;6.80;;;6.20;;
17993;SDS011;9122;48.406;9.984;2022-09-14T04:27:52;6.65;;;6.15;;
17993;SDS011;9122;48.406;9.984;2022-09-14T04:30:37;6.97;;;5.97;;
17993;SDS011;9122;48.406;9.984;2022-09-14T04:33:22;6.78;;;6.18;;
17993;SDS011;9122;48.406;9.984;2022-09-14T04:36:07;6.88;;;6.38;;
17993;SDS011;9122;48.406;9.984;2022-09-14T04:38:54;8.38;;;7.70;;
17993;SDS011;9122;48.406;9.984;2022-09-14T04:41:39;8.95;;;8.05;;
17993;SDS011;9122;48.406;9.984;2022-09-14T04:44:24;7.18;;;6.60;;
17993;SDS011;9122;48.406;9.984;2022-09-14T04:47:08;8.23;;;7.55;;
17993;SDS011;9122;48.406;9.984;2022-09-14T04:49:52;7.18;;;6.63;;
17993;SDS011;9122;48.406;9.984;2022-09-14T04:52:37;7.57;;;6.55;;
17993;SDS011;9122;48.406;9.984;2022-09-14T04:55:21;6.93;;;6.40;;
17993;SDS011;9122;48.406;9.984;2022-09-14T04:58:06;8.10;;;6.70;;
17993;SDS011;9122;48.406;9.984;2022-09-14T05:00:51;7.35;;;6.75;;
17993;SDS011;9122;48.406;9.984;2022-09-14T05:03:36;7.20;;;6.43;;
17993;SDS011;9122;48.406;9.984;2022-09-14T05:06:25;6.75;;;6.25;;
17993;SDS011;9122;48.406;9.984;2022-09-14T05:09:14;7.10;;;6.50;;
17993;SDS011;9122;48.406;9.984;2022-09-14T05:12:00;6.82;;;6.32;;
17993;SDS011;9122;48.406;9.984;2022-09-14T05:14:45;7.60;;;6.43;;
17993;SDS011;9122;48.406;9.984;2022-09-14T05:17:32;9.43;;;6.70;;
17993;SDS011;9122;48.406;9.984;2022-09-14T05:20:17;6.88;;;6.20;;
17993;SDS011;9122;48.406;9.984;2022-09-14T05:23:02;7.10;;;6.50;;
17993;SDS011;9122;48.406;9.984;2022-09-14T05:25:53;7.50;;;6.85;;
17993;SDS011;9122;48.406;9.984;2022-09-14T05:28:37;6.35;;;5.85;;
17993;SDS011;9122;48.406;9.984;2022-09-14T05:31:22;6.70;;;6.20;;
17993;SDS011;9122;48.406;9.984;2022-09-14T05:34:08;7.00;;;6.43;;
17993;SDS011;9122;48.406;9.984;2022-09-14T05:36:53;7.47;;;5.95;;
17993;SDS011;9122;48.406;9.984;2022-09-14T05:39:37;6.97;;;6.38;;
17993;SDS011;9122;48.406;9.984;2022-09-14T05:42:22;7.47;;;6.78;;
17993;SDS011;9122;48.406;9.984;2022-09-14T05:45:06;7.55;;;6.85;;
17993;SDS011;9122;48.406;9.984;2022-09-14T05:47:51;7.50;;;6.80;;
17993;SDS011;9122;48.406;9.984;2022-09-14T05:50:35;7.30;;;6.65;;
17993;SDS011;9122;48.406;9.984;2022-09-14T05:53:19;6.80;;;6.20;;
17993;SDS011;9122;48.406;9.984;2022-09-14T05:58:49;6.97;;;6.40;;
17993;SDS011;9122;48.406;9.984;2022-09-14T06:01:34;7.00;;;6.32;;
17993;SDS011;9122;48.406;9.984;2022-09-14T06:04:18;7.20;;;6.50;;
17993;SDS011;9122;48.406;9.984;2022-09-14T06:07:02;7.32;;;6.72;;
17993;SDS011;9122;48.406;9.984;2022-09-14T06:09:46;7.70;;;6.97;;
17993;SDS011;9122;48.406;9.984;2022-09-14T06:12:30;7.45;;;6.85;;
17993;SDS011;9122;48.406;9.984;2022-09-14T06:15:14;7.13;;;5.63;;
17993;SDS011;9122;48.406;9.984;2022-09-14T06:17:59;9.00;;;6.40;;
17993;SDS011;9122;48.406;9.984;2022-09-14T06:20:50;7.35;;;6.68;;
17993;SDS011;9122;48.406;9.984;2022-09-14T06:23:35;7.65;;;6.95;;
17993;SDS011;9122;48.406;9.984;2022-09-14T06:26:19;8.38;;;6.60;;
17993;SDS011;9122;48.406;9.984;2022-09-14T06:29:03;7.10;;;6.60;;
17993;SDS011;9122;48.406;9.984;2022-09-14T06:31:48;6.65;;;6.03;;
17993;SDS011;9122;48.406;9.984;2022-09-14T06:34:32;6.63;;;6.05;;
17993;SDS011;9122;48.406;9.984;2022-09-14T06:37:16;6.78;;;6.18;;
17993;SDS011;9122;48.406;9.984;2022-09-14T06:40:01;5.90;;;5.50;;
17993;SDS011;9122;48.406;9.984;2022-09-14T06:42:45;6.63;;;6.05;;
17993;SDS011;9122;48.406;9.984;2022-09-14T06:45:30;5.90;;;5.40;;
17993;SDS011;9122;48.406;9.984;2022-09-14T06:48:19;5.82;;;5.25;;
17993;SDS011;9122;48.406;9.984;2022-09-14T06:51:37;7.32;;;5.75;;
17993;SDS011;9122;48.406;9.984;2022-09-14T06:54:17;5.43;;;4.95;;
17993;SDS011;9122;48.406;9.984;2022-09-14T06:57:02;6.70;;;5.95;;
17993;SDS011;9122;48.406;9.984;2022-09-14T06:59:46;6.32;;;5.70;;
17993;SDS011;9122;48.406;9.984;2022-09-14T07:02:31;7.97;;;5.57;;
17993;SDS011;9122;48.406;9.984;2022-09-14T07:05:15;5.60;;;5.20;;
17993;SDS011;9122;48.406;9.984;2022-09-14T07:08:02;5.80;;;5.32;;
17993;SDS011;9122;48.406;9.984;2022-09-14T07:10:54;6.05;;;5.45;;
17993;SDS011;9122;48.406;9.984;2022-09-14T07:13:39;5.20;;;4.78;;
17993;SDS011;9122;48.406;9.984;2022-09-14T07:16:24;5.95;;;5.45;;
17993;SDS011;9122;48.406;9.984;2022-09-14T07:19:09;4.75;;;4.28;;
17993;SDS011;9122;48.406;9.984;2022-09-14T07:21:55;5.00;;;4.70;;
17993;SDS011;9122;48.406;9.984;2022-09-14T07:24:40;5.68;;;4.93;;
17993;SDS011;9122;48.406;9.984;2022-09-14T07:27:24;6.15;;;4.50;;
17993;SDS011;9122;48.406;9.984;2022-09-14T07:30:08;5.35;;;4.68;;
17993;SDS011;9122;48.406;9.984;2022-09-14T07:32:53;4.82;;;4.43;;
17993;SDS011;9122;48.406;9.984;2022-09-14T07:35:37;4.28;;;3.97;;
17993;SDS011;9122;48.406;9.984;2022-09-14T07:38:21;5.72;;;4.43;;
17993;SDS011;9122;48.406;9.984;2022-09-14T07:41:06;3.92;;;3.70;;
17993;SDS011;9122;48.406;9.984;2022-09-14T07:43:51;5.13;;;4.10;;
17993;SDS011;9122;48.406;9.984;2022-09-14T07:46:42;4.13;;;3.20;;
17993;SDS011;9122;48.406;9.984;2022-09-14T07:49:27;7.45;;;3.97;;
17993;SDS011;9122;48.406;9.984;2022-09-14T07:52:12;4.20;;;3.90;;
17993;SDS011;9122;48.406;9.984;2022-09-14T07:54:56;5.80;;;3.28;;
17993;SDS011;9122;48.406;9.984;2022-09-14T07:57:40;4.05;;;3.35;;
17993;SDS011;9122;48.406;9.984;2022-09-14T08:00:25;3.45;;;3.20;;
17993;SDS011;9122;48.406;9.984;2022-09-14T08:03:09;5.93;;;3.83;;
17993;SDS011;9122;48.406;9.984;2022-09-14T08:05:58;4.10;;;3.45;;
17993;SDS011;9122;48.406;9.984;2022-09-14T08:08:45;3.80;;;3.50;;
17993;SDS011;9122;48.406;9.984;2022-09-14T08:11:31;6.70;;;3.08;;
17993;SDS011;9122;48.406;9.984;2022-09-14T08:14:17;4.18;;;3.75;;
17993;SDS011;9122;48.406;9.984;2022-09-14T08:17:02;4.60;;;4.07;;
17993;SDS011;9122;48.406;9.984;2022-09-14T08:19:47;3.78;;;3.47;;
17993;SDS011;9122;48.406;9.984;2022-09-14T08:22:32;4.03;;;3.70;;
17993;SDS011;9122;48.406;9.984;2022-09-14T08:25:16;9.20;;;3.00;;
17993;SDS011;9122;48.406;9.984;2022-09-14T08:28:00;3.17;;;2.75;;
17993;SDS011;9122;48.406;9.984;2022-09-14T08:30:45;6.18;;;3.58;;
17993;SDS011;9122;48.406;9.984;2022-09-14T08:33:30;2.70;;;2.58;;
17993;SDS011;9122;48.406;9.984;2022-09-14T08:36:19;3.40;;;3.10;;
17993;SDS011;9122;48.406;9.984;2022-09-14T08:39:05;3.63;;;3.20;;
17993;SDS011;9122;48.406;9.984;2022-09-14T08:41:55;3.67;;;2.67;;
17993;SDS011;9122;48.406;9.984;2022-09-14T08:45:03;3.15;;;2.75;;
17993;SDS011;9122;48.406;9.984;2022-09-14T08:47:48;2.60;;;2.40;;
17993;SDS011;9122;48.406;9.984;2022-09-14T08:50:34;3.20;;;2.90;;
17993;SDS011;9122;48.406;9.984;2022-09-14T08:53:23;3.20;;;2.90;;
17993;SDS011;9122;48.406;9.984;2022-09-14T08:56:16;3.72;;;2.60;;
17993;SDS011;9122;48.406;9.984;2022-09-14T09:08:43;3.22;;;3.03;;
17993;SDS011;9122;48.406;9.984;2022-09-14T09:11:33;4.32;;;3.33;;
17993;SDS011;9122;48.406;9.984;2022-09-14T09:14:38;3.15;;;2.85;;
17993;SDS011;9122;48.406;9.984;2022-09-14T09:17:33;3.20;;;2.75;;
17993;SDS011;9122;48.406;9.984;2022-09-14T09:20:29;2.92;;;2.67;;
17993;SDS011;9122;48.406;9.984;2022-09-14T09:23:23;2.67;;;2.47;;
17993;SDS011;9122;48.406;9.984;2022-09-14T09:26:29;3.65;;;3.33;;
17993;SDS011;9122;48.406;9.984;2022-09-14T09:29:15;3.60;;;3.33;;
17993;SDS011;9122;48.406;9.984;2022-09-14T09:31:59;2.92;;;2.72;;
17993;SDS011;9122;48.406;9.984;2022-09-14T09:34:44;3.08;;;2.78;;
17993;SDS011;9122;48.406;9.984;2022-09-14T09:37:29;3.05;;;2.83;;
17993;SDS011;9122;48.406;9.984;2022-09-14T09:40:19;3.10;;;2.90;;
17993;SDS011;9122;48.406;9.984;2022-09-14T09:43:11;7.18;;;4.00;;
17993;SDS011;9122;48.406;9.984;2022-09-14T09:45:58;4.03;;;3.42;;
17993;SDS011;9122;48.406;9.984;2022-09-14T09:48:44;3.55;;;3.05;;
17993;SDS011;9122;48.406;9.984;2022-09-14T09:51:31;3.63;;;3.28;;
17993;SDS011;9122;48.406;9.984;2022-09-14T10:03:23;3.65;;;3.38;;
17993;SDS011;9122;48.406;9.984;2022-09-14T10:07:08;3.60;;;3.22;;
17993;SDS011;9122;48.406;9.984;2022-09-14T10:09:57;3.30;;;3.10;;
17993;SDS011;9122;48.406;9.984;2022-09-14T10:13:02;4.97;;;3.60;;
17993;SDS011;9122;48.406;9.984;2022-09-14T10:15:48;3.60;;;3.25;;
17993;SDS011;9122;48.406;9.984;2022-09-14T10:18:33;2.97;;;2.75;;
17993;SDS011;9122;48.406;9.984;2022-09-14T10:21:22;3.25;;;2.92;;
17993;SDS011;9122;48.406;9.984;2022-09-14T10:30:30;5.97;;;3.42;;
17993;SDS011;9122;48.406;9.984;2022-09-14T10:33:43;4.30;;;2.80;;
17993;SDS011;9122;48.406;9.984;2022-09-14T10:36:44;3.55;;;3.35;;
17993;SDS011;9122;48.406;9.984;2022-09-14T10:39:42;3.47;;;3.17;;
17993;SDS011;9122;48.406;9.984;2022-09-14T10:42:50;5.93;;;2.78;;
17993;SDS011;9122;48.406;9.984;2022-09-14T10:45:50;3.78;;;2.80;;
17993;SDS011;9122;48.406;9.984;2022-09-14T10:51:36;3.58;;;3.25;;
17993;SDS011;9122;48.406;9.984;2022-09-14T10:57:20;3.08;;;2.60;;
17993;SDS011;9122;48.406;9.984;2022-09-14T11:00:21;4.22;;;2.90;;
17993;SDS011;9122;48.406;9.984;2022-09-14T11:03:13;3.47;;;3.17;;
17993;SDS011;9122;48.406;9.984;2022-09-14T11:21:59;4.18;;;2.88;;
17993;SDS011;9122;48.406;9.984;2022-09-14T11:27:50;5.75;;;3.63;;
17993;SDS011;9122;48.406;9.984;2022-09-14T11:30:42;3.28;;;2.97;;
17993;SDS011;9122;48.406;9.984;2022-09-14T11:33:37;3.80;;;3.40;;
17993;SDS011;9122;48.406;9.984;2022-09-14T11:36:29;4.50;;;3.65;;
17993;SDS011;9122;48.406;9.984;2022-09-14T11:40:14;3.80;;;3.20;;
17993;SDS011;9122;48.406;9.984;2022-09-14T11:42:31;3.85;;;3.47;;
17993;SDS011;9122;48.406;9.984;2022-09-14T11:45:28;3.40;;;3.10;;
17993;SDS011;9122;48.406;9.984;2022-09-14T11:51:47;5.05;;;3.53;;
17993;SDS011;9122;48.406;9.984;2022-09-14T11:54:17;5.95;;;3.17;;
17993;SDS011;9122;48.406;9.984;2022-09-14T11:57:03;4.25;;;2.78;;
17993;SDS011;9122;48.406;9.984;2022-09-14T12:00:41;5.15;;;3.22;;
17993;SDS011;9122;48.406;9.984;2022-09-14T12:03:20;4.35;;;3.22;;
17993;SDS011;9122;48.406;9.984;2022-09-14T12:12:00;3.05;;;2.85;;
17993;SDS011;9122;48.406;9.984;2022-09-14T12:14:46;4.25;;;3.10;;
17993;SDS011;9122;48.406;9.984;2022-09-14T12:17:32;3.25;;;2.92;;
17993;SDS011;9122;48.406;9.984;2022-09-14T12:29:05;5.45;;;2.92;;
17993;SDS011;9122;48.406;9.984;2022-09-14T12:32:23;3.17;;;2.97;;
17993;SDS011;9122;48.406;9.984;2022-09-14T12:43:56;3.20;;;2.83;;
17993;SDS011;9122;48.406;9.984;2022-09-14T12:46:41;3.08;;;2.88;;
17993;SDS011;9122;48.406;9.984;2022-09-14T12:49:28;3.10;;;2.90;;
17993;SDS011;9122;48.406;9.984;2022-09-14T12:52:20;8.50;;;4.43;;
17993;SDS011;9122;48.406;9.984;2022-09-14T13:04:38;2.30;;;2.08;;
17993;SDS011;9122;48.406;9.984;2022-09-14T13:07:26;4.10;;;2.28;;
17993;SDS011;9122;48.406;9.984;2022-09-14T13:13:14;2.13;;;1.92;;
17993;SDS011;9122;48.406;9.984;2022-09-14T13:16:04;3.58;;;1.55;;
17993;SDS011;9122;48.406;9.984;2022-09-14T13:18:57;1.80;;;1.60;;
17993;SDS011;9122;48.406;9.984;2022-09-14T13:21:44;4.78;;;1.25;;
17993;SDS011;9122;48.406;9.984;2022-09-14T13:27:24;3.03;;;1.10;;
17993;SDS011;9122;48.406;9.984;2022-09-14T13:30:17;2.67;;;1.00;;
17993;SDS011;9122;48.406;9.984;2022-09-14T13:33:04;1.63;;;1.52;;
17993;SDS011;9122;48.406;9.984;2022-09-14T13:35:50;1.10;;;1.10;;
17993;SDS011;9122;48.406;9.984;2022-09-14T13:38:37;1.98;;;1.15;;
17993;SDS011;9122;48.406;9.984;2022-09-14T13:41:22;0.73;;;0.73;;
17993;SDS011;9122;48.406;9.984;2022-09-14T13:44:06;1.38;;;1.20;;
17993;SDS011;9122;48.406;9.984;2022-09-14T13:46:51;2.88;;;1.17;;
17993;SDS011;9122;48.406;9.984;2022-09-14T13:49:36;1.13;;;1.00;;
17993;SDS011;9122;48.406;9.984;2022-09-14T13:55:16;1.13;;;1.13;;
17993;SDS011;9122;48.406;9.984;2022-09-14T13:58:14;1.38;;;1.27;;
17993;SDS011;9122;48.406;9.984;2022-09-14T14:01:04;1.23;;;1.20;;
17993;SDS011;9122;48.406;9.984;2022-09-14T14:03:48;1.83;;;1.30;;
17993;SDS011;9122;48.406;9.984;2022-09-14T14:06:33;2.22;;;1.48;;
17993;SDS011;9122;48.406;9.984;2022-09-14T14:09:20;2.00;;;1.52;;
17993;SDS011;9122;48.406;9.984;2022-09-14T14:12:04;1.77;;;1.67;;
17993;SDS011;9122;48.406;9.984;2022-09-14T14:15:34;1.65;;;1.50;;
17993;SDS011;9122;48.406;9.984;2022-09-14T14:17:57;1.42;;;1.23;;
17993;SDS011;9122;48.406;9.984;2022-09-14T14:20:42;1.40;;;1.10;;
17993;SDS011;9122;48.406;9.984;2022-09-14T14:23:26;1.45;;;1.00;;
17993;SDS011;9122;48.406;9.984;2022-09-14T14:26:12;1.92;;;1.20;;
17993;SDS011;9122;48.406;9.984;2022-09-14T14:29:09;1.95;;;1.33;;
17993;SDS011;9122;48.406;9.984;2022-09-14T14:31:55;1.83;;;1.40;;
17993;SDS011;9122;48.406;9.984;2022-09-14T14:34:39;1.40;;;1.30;;
17993;SDS011;9122;48.406;9.984;2022-09-14T14:37:23;1.85;;;1.60;;
17993;SDS011;9122;48.406;9.984;2022-09-14T14:40:10;1.17;;;1.10;;
17993;SDS011;9122;48.406;9.984;2022-09-14T14:42:55;1.75;;;1.40;;
17993;SDS011;9122;48.406;9.984;2022-09-14T14:45:41;2.17;;;1.17;;
17993;SDS011;9122;48.406;9.984;2022-09-14T14:48:26;1.10;;;1.10;;
17993;SDS011;9122;48.406;9.984;2022-09-14T14:51:12;1.10;;;1.10;;
17993;SDS011;9122;48.406;9.984;2022-09-14T14:53:57;1.17;;;1.02;;
17993;SDS011;9122;48.406;9.984;2022-09-14T14:56:44;4.57;;;1.13;;
17993;SDS011;9122;48.406;9.984;2022-09-14T14:59:29;1.50;;;1.40;;
17993;SDS011;9122;48.406;9.984;2022-09-14T15:02:14;2.35;;;1.30;;
17993;SDS011;9122;48.406;9.984;2022-09-14T15:04:58;2.15;;;1.25;;
17993;SDS011;9122;48.406;9.984;2022-09-14T15:07:42;1.58;;;1.20;;
17993;SDS011;9122;48.406;9.984;2022-09-14T15:10:28;0.88;;;0.85;;
17993;SDS011;9122;48.406;9.984;2022-09-14T15:13:13;4.53;;;1.00;;
17993;SDS011;9122;48.406;9.984;2022-09-14T15:15:57;1.63;;;0.98;;
17993;SDS011;9122;48.406;9.984;2022-09-14T15:18:41;1.83;;;0.98;;
17993;SDS011;9122;48.406;9.984;2022-09-14T15:21:25;3.20;;;1.05;;
17993;SDS011;9122;48.406;9.984;2022-09-14T15:24:10;4.00;;;0.95;;
17993;SDS011;9122;48.406;9.984;2022-09-14T15:26:55;0.55;;;0.55;;
17993;SDS011;9122;48.406;9.984;2022-09-14T15:29:39;1.95;;;0.90;;
17993;SDS011;9122;48.406;9.984;2022-09-14T15:32:24;0.60;;;0.60;;
17993;SDS011;9122;48.406;9.984;2022-09-14T15:35:10;0.60;;;0.60;;
17993;SDS011;9122;48.406;9.984;2022-09-14T15:37:55;0.80;;;0.80;;
17993;SDS011;9122;48.406;9.984;2022-09-14T15:40:40;0.68;;;0.68;;
17993;SDS011;9122;48.406;9.984;2022-09-14T15:43:24;0.70;;;0.70;;
17993;SDS011;9122;48.406;9.984;2022-09-14T15:46:09;0.95;;;0.73;;
17993;SDS011;9122;48.406;9.984;2022-09-14T15:48:53;0.60;;;0.60;;
17993;SDS011;9122;48.406;9.984;2022-09-14T15:51:37;1.55;;;0.82;;
17993;SDS011;9122;48.406;9.984;2022-09-14T15:54:29;1.65;;;0.73;;
17993;SDS011;9122;48.406;9.984;2022-09-14T15:57:14;1.20;;;0.88;;
17993;SDS011;9122;48.406;9.984;2022-09-14T15:59:58;3.30;;;0.80;;
17993;SDS011;9122;48.406;9.984;2022-09-14T16:02:43;2.40;;;0.60;;
17993;SDS011;9122;48.406;9.984;2022-09-14T16:05:28;0.77;;;0.73;;
17993;SDS011;9122;48.406;9.984;2022-09-14T16:08:13;1.85;;;0.93;;
17993;SDS011;9122;48.406;9.984;2022-09-14T16:11:06;1.38;;;0.65;;
17993;SDS011;9122;48.406;9.984;2022-09-14T16:13:51;0.73;;;0.50;;
17993;SDS011;9122;48.406;9.984;2022-09-14T16:16:36;1.17;;;0.70;;
17993;SDS011;9122;48.406;9.984;2022-09-14T16:19:21;0.85;;;0.50;;
17993;SDS011;9122;48.406;9.984;2022-09-14T16:22:06;1.35;;;0.82;;
17993;SDS011;9122;48.406;9.984;2022-09-14T16:24:50;0.60;;;0.60;;
17993;SDS011;9122;48.406;9.984;2022-09-14T16:27:35;0.98;;;0.98;;
17993;SDS011;9122;48.406;9.984;2022-09-14T16:30:20;0.77;;;0.68;;
17993;SDS011;9122;48.406;9.984;2022-09-14T16:33:04;0.82;;;0.82;;
17993;SDS011;9122;48.406;9.984;2022-09-14T16:35:48;2.45;;;0.70;;
17993;SDS011;9122;48.406;9.984;2022-09-14T16:38:32;1.38;;;1.27;;
17993;SDS011;9122;48.406;9.984;2022-09-14T16:41:17;1.10;;;1.00;;
17993;SDS011;9122;48.406;9.984;2022-09-14T16:44:01;1.58;;;0.80;;
17993;SDS011;9122;48.406;9.984;2022-09-14T16:46:49;1.75;;;1.10;;
17993;SDS011;9122;48.406;9.984;2022-09-14T16:49:34;3.83;;;1.80;;
17993;SDS011;9122;48.406;9.984;2022-09-14T16:52:20;1.20;;;1.10;;
17993;SDS011;9122;48.406;9.984;2022-09-14T16:55:05;1.17;;;1.17;;
17993;SDS011;9122;48.406;9.984;2022-09-14T16:57:50;2.22;;;0.95;;
17993;SDS011;9122;48.406;9.984;2022-09-14T17:00:34;1.65;;;1.38;;
17993;SDS011;9122;48.406;9.984;2022-09-14T17:03:18;3.67;;;1.30;;
17993;SDS011;9122;48.406;9.984;2022-09-14T17:06:03;1.15;;;1.15;;
17993;SDS011;9122;48.406;9.984;2022-09-14T17:08:51;1.00;;;1.00;;
17993;SDS011;9122;48.406;9.984;2022-09-14T17:11:38;1.02;;;0.82;;
17993;SDS011;9122;48.406;9.984;2022-09-14T17:14:24;1.08;;;0.77;;
17993;SDS011;9122;48.406;9.984;2022-09-14T17:17:10;0.80;;;0.80;;
17993;SDS011;9122;48.406;9.984;2022-09-14T17:19:55;0.90;;;0.90;;
17993;SDS011;9122;48.406;9.984;2022-09-14T17:22:40;1.05;;;1.05;;
17993;SDS011;9122;48.406;9.984;2022-09-14T17:25:24;0.73;;;0.68;;
17993;SDS011;9122;48.406;9.984;2022-09-14T17:28:08;1.85;;;1.13;;
17993;SDS011;9122;48.406;9.984;2022-09-14T17:30:53;0.70;;;0.70;;
17993;SDS011;9122;48.406;9.984;2022-09-14T17:33:40;3.92;;;1.05;;
17993;SDS011;9122;48.406;9.984;2022-09-14T17:36:25;1.20;;;1.10;;
17993;SDS011;9122;48.406;9.984;2022-09-14T17:39:17;0.80;;;0.80;;
17993;SDS011;9122;48.406;9.984;2022-09-14T17:42:01;1.42;;;0.85;;
17993;SDS011;9122;48.406;9.984;2022-09-14T17:44:46;1.73;;;0.80;;
17993;SDS011;9122;48.406;9.984;2022-09-14T17:47:30;1.58;;;0.90;;
17993;SDS011;9122;48.406;9.984;2022-09-14T17:50:20;0.70;;;0.70;;
17993;SDS011;9122;48.406;9.984;2022-09-14T17:53:06;6.10;;;1.42;;
17993;SDS011;9122;48.406;9.984;2022-09-14T17:55:51;1.80;;;1.70;;
17993;SDS011;9122;48.406;9.984;2022-09-14T17:58:36;3.08;;;2.88;;
17993;SDS011;9122;48.406;9.984;2022-09-14T18:01:21;2.97;;;1.80;;
17993;SDS011;9122;48.406;9.984;2022-09-14T18:04:07;2.03;;;1.85;;
17993;SDS011;9122;48.406;9.984;2022-09-14T18:06:53;2.33;;;1.20;;
17993;SDS011;9122;48.406;9.984;2022-09-14T18:09:38;3.00;;;0.98;;
17993;SDS011;9122;48.406;9.984;2022-09-14T18:12:22;2.15;;;1.00;;
17993;SDS011;9122;48.406;9.984;2022-09-14T18:15:07;1.05;;;1.00;;
17993;SDS011;9122;48.406;9.984;2022-09-14T18:17:52;1.02;;;0.90;;
17993;SDS011;9122;48.406;9.984;2022-09-14T18:20:36;0.73;;;0.73;;
17993;SDS011;9122;48.406;9.984;2022-09-14T18:23:21;0.80;;;0.80;;
17993;SDS011;9122;48.406;9.984;2022-09-14T18:26:07;2.13;;;1.00;;
17993;SDS011;9122;48.406;9.984;2022-09-14T18:28:52;1.00;;;1.00;;
17993;SDS011;9122;48.406;9.984;2022-09-14T18:31:38;1.20;;;1.10;;
17993;SDS011;9122;48.406;9.984;2022-09-14T18:34:23;1.10;;;1.00;;
17993;SDS011;9122;48.406;9.984;2022-09-14T18:37:08;1.00;;;1.00;;
17993;SDS011;9122;48.406;9.984;2022-09-14T18:39:52;1.02;;;0.95;;
17993;SDS011;9122;48.406;9.984;2022-09-14T18:42:36;0.80;;;0.80;;
17993;SDS011;9122;48.406;9.984;2022-09-14T18:45:21;1.35;;;1.17;;
17993;SDS011;9122;48.406;9.984;2022-09-14T18:48:05;1.10;;;0.80;;
17993;SDS011;9122;48.406;9.984;2022-09-14T18:50:49;0.85;;;0.85;;
17993;SDS011;9122;48.406;9.984;2022-09-14T18:53:34;0.95;;;0.95;;
17993;SDS011;9122;48.406;9.984;2022-09-14T18:56:19;1.20;;;0.80;;
17993;SDS011;9122;48.406;9.984;2022-09-14T18:59:04;1.38;;;1.10;;
17993;SDS011;9122;48.406;9.984;2022-09-14T19:01:50;0.88;;;0.88;;
17993;SDS011;9122;48.406;9.984;2022-09-14T19:04:35;2.00;;;0.82;;
17993;SDS011;9122;48.406;9.984;2022-09-14T19:07:20;1.23;;;1.08;;
17993;SDS011;9122;48.406;9.984;2022-09-14T19:10:05;1.98;;;0.95;;